createdAt,value
2023-12-10T00:00:45.329Z,1.70
2023-12-10T00:01:48.132Z,1.70
2023-12-10T00:02:50.961Z,1.71
2023-12-10T00:03:53.841Z,1.71
2023-12-10T00:04:56.686Z,1.71
2023-12-10T00:06:07.194Z,1.72
2023-12-10T00:07:16.308Z,1.72
2023-12-10T00:08:21.233Z,1.72
2023-12-10T00:09:24.366Z,1.73
2023-12-10T00:10:27.205Z,1.74
2023-12-10T00:11:29.988Z,1.75
2023-12-10T00:12:37.632Z,1.75
2023-12-10T00:13:41.847Z,1.76
2023-12-10T00:14:53.623Z,1.77
2023-12-10T00:15:56.337Z,1.78
2023-12-10T00:16:59.801Z,1.78
2023-12-10T00:18:02.710Z,1.79
2023-12-10T00:19:05.792Z,1.79
2023-12-10T00:20:10.080Z,1.80
2023-12-10T00:21:16.101Z,1.80
2023-12-10T00:22:19.182Z,1.81
2023-12-10T00:23:22.323Z,1.82
2023-12-10T00:24:25.125Z,1.82
2023-12-10T00:25:28.031Z,1.82
2023-12-10T00:26:30.797Z,1.82
2023-12-10T00:27:33.567Z,1.82
2023-12-10T00:28:36.635Z,1.82
2023-12-10T00:29:39.409Z,1.83
2023-12-10T00:30:43.873Z,1.84
2023-12-10T00:31:46.800Z,1.84
2023-12-10T00:32:49.664Z,1.85
2023-12-10T00:33:52.753Z,1.85
2023-12-10T00:34:56.051Z,1.86
2023-12-10T00:36:00.329Z,1.87
2023-12-10T00:37:03.098Z,1.87
2023-12-10T00:38:05.852Z,1.88
2023-12-10T00:39:10.562Z,1.88
2023-12-10T00:40:13.571Z,1.88
2023-12-10T00:41:16.779Z,1.88
2023-12-10T00:42:20.152Z,1.89
2023-12-10T00:43:22.935Z,1.89
2023-12-10T00:44:25.697Z,1.89
2023-12-10T00:45:28.497Z,1.90
2023-12-10T00:46:31.212Z,1.90
2023-12-10T00:47:34.013Z,1.91
2023-12-10T00:48:38.814Z,1.92
2023-12-10T00:49:41.888Z,1.93
2023-12-10T00:50:46.572Z,1.93
2023-12-10T00:51:49.377Z,1.93
2023-12-10T00:52:52.069Z,1.94
2023-12-10T00:53:57.641Z,1.96
2023-12-10T00:55:00.501Z,1.96
2023-12-10T00:56:03.380Z,1.97
2023-12-10T00:57:06.227Z,1.97
2023-12-10T00:58:09.045Z,1.97
2023-12-10T00:59:15.571Z,1.98
2023-12-10T01:00:18.776Z,1.98
2023-12-10T01:01:21.754Z,1.99
2023-12-10T01:02:24.880Z,2.00
2023-12-10T01:03:27.962Z,2.00
2023-12-10T01:04:31.161Z,2.00
2023-12-10T01:05:34.887Z,2.00
2023-12-10T01:06:37.730Z,2.01
2023-12-10T01:07:40.499Z,2.01
2023-12-10T01:08:45.487Z,2.02
2023-12-10T01:09:50.199Z,2.02
2023-12-10T01:10:53.029Z,2.03
2023-12-10T01:11:55.779Z,2.04
2023-12-10T01:12:58.642Z,2.04
2023-12-10T01:14:04.071Z,2.05
2023-12-10T01:15:09.590Z,2.07
2023-12-10T01:16:14.607Z,2.08
2023-12-10T01:17:21.957Z,2.09
2023-12-10T01:18:25.069Z,2.09
2023-12-10T01:19:28.510Z,2.10
2023-12-10T01:20:35.099Z,2.10
2023-12-10T01:21:38.002Z,2.11
2023-12-10T01:22:41.992Z,2.12
2023-12-10T01:23:44.811Z,2.12
2023-12-10T01:24:47.653Z,2.13
2023-12-10T01:25:50.440Z,2.13
2023-12-10T01:26:53.168Z,2.13
2023-12-10T01:27:56.177Z,2.14
2023-12-10T01:28:59.012Z,2.15
2023-12-10T01:30:01.772Z,2.15
2023-12-10T01:31:05.021Z,2.15
2023-12-10T01:32:08.377Z,2.16
2023-12-10T01:33:11.909Z,2.16
2023-12-10T01:34:15.100Z,2.15
2023-12-10T01:35:18.154Z,2.15
2023-12-10T01:36:25.039Z,2.16
2023-12-10T01:37:28.090Z,2.16
2023-12-10T01:38:30.792Z,2.15
2023-12-10T01:39:33.559Z,2.16
2023-12-10T01:40:36.344Z,2.16
2023-12-10T01:41:39.263Z,2.16
2023-12-10T01:42:43.068Z,2.17
2023-12-10T01:43:47.030Z,2.18
2023-12-10T01:44:49.756Z,2.18
2023-12-10T01:45:54.738Z,2.18
2023-12-10T01:46:58.061Z,2.19
2023-12-10T01:48:06.012Z,2.19
2023-12-10T01:49:11.294Z,2.20
2023-12-10T01:50:14.659Z,2.20
2023-12-10T01:51:17.474Z,2.20
2023-12-10T01:52:23.310Z,2.20
2023-12-10T01:53:26.251Z,2.21
2023-12-10T01:54:29.217Z,2.21
2023-12-10T01:55:32.237Z,2.22
2023-12-10T01:56:36.002Z,2.23
2023-12-10T01:57:42.276Z,2.23
2023-12-10T01:58:46.940Z,2.24
2023-12-10T01:59:51.751Z,2.25
2023-12-10T02:00:54.815Z,2.25
2023-12-10T02:02:00.826Z,2.26
2023-12-10T02:03:04.330Z,2.27
2023-12-10T02:04:07.429Z,2.27
2023-12-10T02:05:11.457Z,2.28
2023-12-10T02:06:14.374Z,2.29
2023-12-10T02:07:17.256Z,2.30
2023-12-10T02:08:20.921Z,2.30
2023-12-10T02:09:23.804Z,2.29
2023-12-10T02:10:26.555Z,2.30
2023-12-10T02:11:29.513Z,2.30
2023-12-10T02:12:34.580Z,2.31
2023-12-10T02:13:38.321Z,2.31
2023-12-10T02:14:41.660Z,2.31
2023-12-10T02:15:44.453Z,2.32
2023-12-10T02:16:47.178Z,2.32
2023-12-10T02:17:51.299Z,2.32
2023-12-10T02:18:54.139Z,2.32
2023-12-10T02:19:57.007Z,2.33
2023-12-10T02:21:00.071Z,2.33
2023-12-10T02:22:05.033Z,2.33
2023-12-10T02:23:18.822Z,2.33
2023-12-10T02:24:32.685Z,2.33
2023-12-10T02:25:36.675Z,2.33
2023-12-10T02:26:39.846Z,2.33
2023-12-10T02:27:42.887Z,2.33
2023-12-10T02:28:45.966Z,2.33
2023-12-10T02:29:52.142Z,2.33
2023-12-10T02:30:54.960Z,2.32
2023-12-10T02:31:57.817Z,2.32
2023-12-10T02:33:01.151Z,2.33
2023-12-10T02:34:04.037Z,2.33
2023-12-10T02:35:07.926Z,2.33
2023-12-10T02:36:10.692Z,2.33
2023-12-10T02:37:13.591Z,2.33
2023-12-10T02:38:22.211Z,2.33
2023-12-10T02:39:25.320Z,2.33
2023-12-10T02:40:28.123Z,2.34
2023-12-10T02:41:30.811Z,2.33
2023-12-10T02:42:33.610Z,2.27
2023-12-10T02:43:36.382Z,2.28
2023-12-10T02:44:39.216Z,2.30
2023-12-10T02:45:42.015Z,2.31
2023-12-10T02:46:51.679Z,2.32
2023-12-10T02:47:54.946Z,2.32
2023-12-10T02:48:57.894Z,2.33
2023-12-10T02:50:00.772Z,2.34
2023-12-10T02:51:03.544Z,2.34
2023-12-10T02:52:06.465Z,2.35
2023-12-10T02:53:09.534Z,2.35
2023-12-10T02:54:15.422Z,2.36
2023-12-10T02:55:18.239Z,2.36
2023-12-10T02:56:20.933Z,2.36
2023-12-10T02:57:23.768Z,2.36
2023-12-10T02:58:26.766Z,2.37
2023-12-10T02:59:29.467Z,2.37
2023-12-10T03:00:32.381Z,2.37
2023-12-10T03:01:35.218Z,2.37
2023-12-10T03:02:38.145Z,2.38
2023-12-10T03:03:40.969Z,2.39
2023-12-10T03:04:43.762Z,2.40
2023-12-10T03:05:46.602Z,2.40
2023-12-10T03:06:49.491Z,2.40
2023-12-10T03:07:52.816Z,2.41
2023-12-10T03:08:55.772Z,2.42
2023-12-10T03:09:58.543Z,2.42
2023-12-10T03:11:01.229Z,2.42
2023-12-10T03:12:04.229Z,2.42
2023-12-10T03:13:07.105Z,2.43
2023-12-10T03:14:12.784Z,2.43
2023-12-10T03:15:17.245Z,2.43
2023-12-10T03:16:20.779Z,2.43
2023-12-10T03:17:23.714Z,2.43
2023-12-10T03:18:27.640Z,2.42
2023-12-10T03:19:30.716Z,2.42
2023-12-10T03:20:33.590Z,2.42
2023-12-10T03:21:36.309Z,2.42
2023-12-10T03:22:39.116Z,2.41
2023-12-10T03:23:41.849Z,2.41
2023-12-10T03:24:44.731Z,2.41
2023-12-10T03:25:47.448Z,2.41
2023-12-10T03:26:50.230Z,2.41
2023-12-10T03:27:53.229Z,2.41
2023-12-10T03:28:56.089Z,2.41
2023-12-10T03:29:58.858Z,2.42
2023-12-10T03:31:02.536Z,2.42
2023-12-10T03:32:05.752Z,2.42
2023-12-10T03:33:08.488Z,2.42
2023-12-10T03:34:11.382Z,2.42
2023-12-10T03:35:14.418Z,2.43
2023-12-10T03:36:18.852Z,2.43
2023-12-10T03:37:22.576Z,2.43
2023-12-10T03:38:25.445Z,2.44
2023-12-10T03:39:28.362Z,2.44
2023-12-10T03:40:34.223Z,2.44
2023-12-10T03:41:37.089Z,2.44
2023-12-10T03:42:39.913Z,2.44
2023-12-10T03:43:42.654Z,2.45
2023-12-10T03:44:45.397Z,2.46
2023-12-10T03:45:48.130Z,2.46
2023-12-10T03:46:50.916Z,2.46
2023-12-10T03:47:53.707Z,2.47
2023-12-10T03:48:56.579Z,2.47
2023-12-10T03:49:59.495Z,2.48
2023-12-10T03:51:02.296Z,2.48
2023-12-10T03:52:05.382Z,2.48
2023-12-10T03:53:08.169Z,2.48
2023-12-10T03:54:10.903Z,2.49
2023-12-10T03:55:13.698Z,2.49
2023-12-10T03:56:16.461Z,2.50
2023-12-10T03:57:19.180Z,2.50
2023-12-10T03:58:22.391Z,2.50
2023-12-10T03:59:25.336Z,2.51
2023-12-10T04:00:28.107Z,2.51
2023-12-10T04:01:30.938Z,2.51
2023-12-10T04:02:34.086Z,2.51
2023-12-10T04:03:36.879Z,2.51
2023-12-10T04:04:39.735Z,2.52
2023-12-10T04:05:42.465Z,2.52
2023-12-10T04:06:45.304Z,2.53
2023-12-10T04:08:00.207Z,2.53
2023-12-10T04:09:02.915Z,2.53
2023-12-10T04:10:06.852Z,2.53
2023-12-10T04:11:09.675Z,2.54
2023-12-10T04:12:12.692Z,2.54
2023-12-10T04:13:17.123Z,2.54
2023-12-10T04:14:19.792Z,2.54
2023-12-10T04:15:22.630Z,2.55
2023-12-10T04:16:27.445Z,2.56
2023-12-10T04:17:30.443Z,2.56
2023-12-10T04:18:33.282Z,2.57
2023-12-10T04:19:36.159Z,2.58
2023-12-10T04:20:39.141Z,2.58
2023-12-10T04:21:41.889Z,2.59
2023-12-10T04:22:44.723Z,2.60
2023-12-10T04:23:47.518Z,2.60
2023-12-10T04:24:50.275Z,2.60
2023-12-10T04:25:53.090Z,2.61
2023-12-10T04:26:55.818Z,2.61
2023-12-10T04:27:58.673Z,2.62
2023-12-10T04:29:01.487Z,2.62
2023-12-10T04:30:04.713Z,2.62
2023-12-10T04:31:07.605Z,2.63
2023-12-10T04:32:11.252Z,2.63
2023-12-10T04:33:14.074Z,2.64
2023-12-10T04:34:17.010Z,2.64
2023-12-10T04:35:20.307Z,2.64
2023-12-10T04:36:23.188Z,2.64
2023-12-10T04:37:26.059Z,2.65
2023-12-10T04:38:29.653Z,2.65
2023-12-10T04:39:32.426Z,2.65
2023-12-10T04:40:35.195Z,2.65
2023-12-10T04:41:38.036Z,2.65
2023-12-10T04:42:41.032Z,2.65
2023-12-10T04:43:43.963Z,2.65
2023-12-10T04:44:47.030Z,2.65
2023-12-10T04:45:50.065Z,2.65
2023-12-10T04:46:52.810Z,2.64
2023-12-10T04:47:55.636Z,2.64
2023-12-10T04:48:58.573Z,2.64
2023-12-10T04:50:03.917Z,2.63
2023-12-10T04:51:07.056Z,2.63
2023-12-10T04:52:09.903Z,2.62
2023-12-10T04:53:12.848Z,2.61
2023-12-10T04:54:15.558Z,2.60
2023-12-10T04:55:18.234Z,2.59
2023-12-10T04:56:20.903Z,2.58
2023-12-10T04:57:23.603Z,2.57
2023-12-10T04:58:26.399Z,2.56
2023-12-10T04:59:29.413Z,2.54
2023-12-10T05:00:35.069Z,2.54
2023-12-10T05:01:37.984Z,2.53
2023-12-10T05:02:40.752Z,2.51
2023-12-10T05:03:43.633Z,2.49
2023-12-10T05:04:49.381Z,2.49
2023-12-10T05:05:52.151Z,2.48
2023-12-10T05:06:55.042Z,2.47
2023-12-10T05:07:57.955Z,2.46
2023-12-10T05:09:01.134Z,2.46
2023-12-10T05:10:04.755Z,2.46
2023-12-10T05:11:07.742Z,2.45
2023-12-10T05:12:10.457Z,2.45
2023-12-10T05:13:13.193Z,2.44
2023-12-10T05:14:15.935Z,2.43
2023-12-10T05:15:18.682Z,2.43
2023-12-10T05:16:21.443Z,2.42
2023-12-10T05:17:25.019Z,2.42
2023-12-10T05:18:28.019Z,2.42
2023-12-10T05:19:31.058Z,2.41
2023-12-10T05:20:33.779Z,2.41
2023-12-10T05:21:36.670Z,2.40
2023-12-10T05:22:39.556Z,2.39
2023-12-10T05:23:42.456Z,2.39
2023-12-10T05:24:45.893Z,2.38
2023-12-10T05:25:48.717Z,2.38
2023-12-10T05:26:51.880Z,2.37
2023-12-10T05:27:56.794Z,2.37
2023-12-10T05:28:59.967Z,2.37
2023-12-10T05:30:02.752Z,2.36
2023-12-10T05:31:06.195Z,2.36
2023-12-10T05:32:09.020Z,2.35
2023-12-10T05:33:11.818Z,2.35
2023-12-10T05:34:14.679Z,2.35
2023-12-10T05:35:20.518Z,2.35
2023-12-10T05:36:23.408Z,2.34
2023-12-10T05:37:26.151Z,2.34
2023-12-10T05:38:28.868Z,2.35
2023-12-10T05:39:31.756Z,2.35
2023-12-10T05:40:34.591Z,2.35
2023-12-10T05:41:37.404Z,2.34
2023-12-10T05:42:41.344Z,2.34
2023-12-10T05:43:44.314Z,2.34
2023-12-10T05:44:47.015Z,2.34
2023-12-10T05:45:49.859Z,2.34
2023-12-10T05:46:52.671Z,2.35
2023-12-10T05:47:55.495Z,2.35
2023-12-10T05:48:58.812Z,2.34
2023-12-10T05:50:01.566Z,2.34
2023-12-10T05:51:04.794Z,2.33
2023-12-10T05:52:07.624Z,2.33
2023-12-10T05:53:10.379Z,2.32
2023-12-10T05:54:15.050Z,2.32
2023-12-10T05:55:17.797Z,2.32
2023-12-10T05:56:20.631Z,2.32
2023-12-10T05:57:23.391Z,2.31
2023-12-10T05:58:26.140Z,2.31
2023-12-10T05:59:31.806Z,2.31
2023-12-10T06:00:34.573Z,2.30
2023-12-10T06:01:37.450Z,2.30
2023-12-10T06:02:40.265Z,2.29
2023-12-10T06:03:43.110Z,2.29
2023-12-10T06:04:46.028Z,2.29
2023-12-10T06:05:49.733Z,2.30
2023-12-10T06:06:52.619Z,2.30
2023-12-10T06:07:56.087Z,2.29
2023-12-10T06:08:58.836Z,2.29
2023-12-10T06:10:01.669Z,2.29
2023-12-10T06:11:04.656Z,2.29
2023-12-10T06:12:07.586Z,2.29
2023-12-10T06:13:10.246Z,2.30
2023-12-10T06:14:13.061Z,2.30
2023-12-10T06:15:15.872Z,2.29
2023-12-10T06:16:18.679Z,2.30
2023-12-10T06:17:21.433Z,2.30
2023-12-10T06:18:24.601Z,2.30
2023-12-10T06:19:29.975Z,2.29
2023-12-10T06:20:32.752Z,2.29
2023-12-10T06:21:35.760Z,2.30
2023-12-10T06:22:38.780Z,2.30
2023-12-10T06:23:43.788Z,2.31
2023-12-10T06:24:46.637Z,2.32
2023-12-10T06:25:49.706Z,2.32
2023-12-10T06:26:52.564Z,2.32
2023-12-10T06:27:58.078Z,2.32
2023-12-10T06:29:00.917Z,2.32
2023-12-10T06:30:03.785Z,2.32
2023-12-10T06:31:06.689Z,2.32
2023-12-10T06:32:09.417Z,2.32
2023-12-10T06:33:12.326Z,2.32
2023-12-10T06:34:15.258Z,2.32
2023-12-10T06:35:18.597Z,2.33
2023-12-10T06:36:21.358Z,2.34
2023-12-10T06:37:24.966Z,2.34
2023-12-10T06:38:27.768Z,2.34
2023-12-10T06:39:30.695Z,2.34
2023-12-10T06:40:34.000Z,2.34
2023-12-10T06:41:39.626Z,2.34
2023-12-10T06:42:42.518Z,2.35
2023-12-10T06:43:45.410Z,2.36
2023-12-10T06:44:48.153Z,2.36
2023-12-10T06:45:53.085Z,2.37
2023-12-10T06:46:55.938Z,2.38
2023-12-10T06:47:58.905Z,2.38
2023-12-10T06:49:01.930Z,2.38
2023-12-10T06:50:05.393Z,2.39
2023-12-10T06:51:08.250Z,2.39
2023-12-10T06:52:10.941Z,2.39
2023-12-10T06:53:13.666Z,2.40
2023-12-10T06:54:16.456Z,2.40
2023-12-10T06:55:19.186Z,2.40
2023-12-10T06:56:21.987Z,2.40
2023-12-10T06:57:24.987Z,2.40
2023-12-10T06:58:27.838Z,2.40
2023-12-10T06:59:30.639Z,2.40
2023-12-10T07:00:36.337Z,2.40
2023-12-10T07:01:39.305Z,2.40
2023-12-10T07:02:42.400Z,2.40
2023-12-10T07:03:45.261Z,2.41
2023-12-10T07:04:48.133Z,2.41
2023-12-10T07:05:51.006Z,2.42
2023-12-10T07:06:53.804Z,2.43
2023-12-10T07:07:56.562Z,2.43
2023-12-10T07:08:59.323Z,2.43
2023-12-10T07:10:02.736Z,2.44
2023-12-10T07:11:11.558Z,2.44
2023-12-10T07:12:15.748Z,2.45
2023-12-10T07:13:18.510Z,2.45
2023-12-10T07:14:21.577Z,2.45
2023-12-10T07:15:24.387Z,2.45
2023-12-10T07:16:27.296Z,2.46
2023-12-10T07:17:30.409Z,2.46
2023-12-10T07:18:33.308Z,2.47
2023-12-10T07:19:36.200Z,2.47
2023-12-10T07:20:39.143Z,2.47
2023-12-10T07:21:41.899Z,2.47
2023-12-10T07:22:44.596Z,2.47
2023-12-10T07:23:47.463Z,2.47
2023-12-10T07:24:50.282Z,2.48
2023-12-10T07:25:53.111Z,2.48
2023-12-10T07:26:56.195Z,2.47
2023-12-10T07:27:58.971Z,2.47
2023-12-10T07:29:01.735Z,2.46
2023-12-10T07:30:04.874Z,2.46
2023-12-10T07:31:08.729Z,2.47
2023-12-10T07:32:11.385Z,2.47
2023-12-10T07:33:14.451Z,2.48
2023-12-10T07:34:17.360Z,2.48
2023-12-10T07:35:20.275Z,2.49
2023-12-10T07:36:23.022Z,2.49
2023-12-10T07:37:25.757Z,2.49
2023-12-10T07:38:28.583Z,2.50
2023-12-10T07:39:31.367Z,2.50
2023-12-10T07:40:34.184Z,2.51
2023-12-10T07:41:37.220Z,2.52
2023-12-10T07:42:40.315Z,2.52
2023-12-10T07:43:43.159Z,2.52
2023-12-10T07:44:45.996Z,2.53
2023-12-10T07:45:48.965Z,2.54
2023-12-10T07:46:52.175Z,2.55
2023-12-10T07:47:55.033Z,2.56
2023-12-10T07:48:57.992Z,2.57
2023-12-10T07:50:00.833Z,2.58
2023-12-10T07:51:03.782Z,2.59
2023-12-10T07:52:06.553Z,2.60
2023-12-10T07:53:09.333Z,2.61
2023-12-10T07:54:12.105Z,2.62
2023-12-10T07:55:14.831Z,2.62
2023-12-10T07:56:17.697Z,2.63
2023-12-10T07:57:20.501Z,2.64
2023-12-10T07:58:23.497Z,2.64
2023-12-10T07:59:26.540Z,2.65
2023-12-10T08:00:29.449Z,2.65
2023-12-10T08:01:32.297Z,2.67
2023-12-10T08:02:35.218Z,2.68
2023-12-10T08:03:38.385Z,2.68
2023-12-10T08:04:41.278Z,2.69
2023-12-10T08:05:44.145Z,2.70
2023-12-10T08:06:47.016Z,2.70
2023-12-10T08:07:49.803Z,2.70
2023-12-10T08:08:52.532Z,2.71
2023-12-10T08:09:55.366Z,2.71
2023-12-10T08:10:58.261Z,2.71
2023-12-10T08:12:03.022Z,2.70
2023-12-10T08:13:05.836Z,2.70
2023-12-10T08:14:10.688Z,2.71
2023-12-10T08:15:13.429Z,2.71
2023-12-10T08:16:16.240Z,2.71
2023-12-10T08:17:19.078Z,2.72
2023-12-10T08:18:21.952Z,2.72
2023-12-10T08:19:25.272Z,2.73
2023-12-10T08:20:32.193Z,2.74
2023-12-10T08:21:37.831Z,2.75
2023-12-10T08:22:40.630Z,2.76
2023-12-10T08:23:43.376Z,2.77
2023-12-10T08:24:46.365Z,2.78
2023-12-10T08:25:49.088Z,2.80
2023-12-10T08:26:51.843Z,2.82
2023-12-10T08:27:54.725Z,2.83
2023-12-10T08:28:57.471Z,2.84
2023-12-10T08:30:00.385Z,2.85
2023-12-10T08:31:03.296Z,2.86
2023-12-10T08:32:09.189Z,2.87
2023-12-10T08:33:12.050Z,2.89
2023-12-10T08:34:14.951Z,2.89
2023-12-10T08:35:17.693Z,2.90
2023-12-10T08:36:20.678Z,2.91
2023-12-10T08:37:23.566Z,2.91
2023-12-10T08:38:26.405Z,2.92
2023-12-10T08:39:29.231Z,2.92
2023-12-10T08:40:31.970Z,2.93
2023-12-10T08:41:34.684Z,2.94
2023-12-10T08:42:37.394Z,2.95
2023-12-10T08:43:40.126Z,2.96
2023-12-10T08:44:42.955Z,2.97
2023-12-10T08:45:45.795Z,2.97
2023-12-10T08:46:48.583Z,2.98
2023-12-10T08:47:51.372Z,2.99
2023-12-10T08:48:54.353Z,2.99
2023-12-10T08:49:57.228Z,3.00
2023-12-10T08:51:00.058Z,3.00
2023-12-10T08:52:02.778Z,3.01
2023-12-10T08:53:05.528Z,3.01
2023-12-10T08:54:08.406Z,3.01
2023-12-10T08:55:11.282Z,3.02
2023-12-10T08:56:14.050Z,3.02
2023-12-10T08:57:18.700Z,3.02
2023-12-10T08:58:21.655Z,3.03
2023-12-10T08:59:24.450Z,3.03
2023-12-10T09:00:27.279Z,3.04
2023-12-10T09:01:30.130Z,3.06
2023-12-10T09:02:33.153Z,3.07
2023-12-10T09:03:36.062Z,3.08
2023-12-10T09:04:38.916Z,3.08
2023-12-10T09:05:41.791Z,3.09
2023-12-10T09:06:44.600Z,3.10
2023-12-10T09:07:47.295Z,3.10
2023-12-10T09:08:50.103Z,3.10
2023-12-10T09:09:59.355Z,3.10
2023-12-10T09:11:08.704Z,3.10
2023-12-10T09:12:11.545Z,3.10
2023-12-10T09:13:14.372Z,3.10
2023-12-10T09:14:19.077Z,3.11
2023-12-10T09:15:21.832Z,3.12
2023-12-10T09:16:24.588Z,3.12
2023-12-10T09:17:27.456Z,3.13
2023-12-10T09:18:30.546Z,3.14
2023-12-10T09:19:33.719Z,3.15
2023-12-10T09:20:37.524Z,3.15
2023-12-10T09:21:40.312Z,3.15
2023-12-10T09:22:43.021Z,3.17
2023-12-10T09:23:45.875Z,3.17
2023-12-10T09:24:48.644Z,3.17
2023-12-10T09:25:51.359Z,3.17
2023-12-10T09:26:54.120Z,3.18
2023-12-10T09:27:56.895Z,3.18
2023-12-10T09:28:59.899Z,3.20
2023-12-10T09:30:03.679Z,3.21
2023-12-10T09:31:07.118Z,3.22
2023-12-10T09:32:10.301Z,3.24
2023-12-10T09:33:13.111Z,3.25
2023-12-10T09:34:16.679Z,3.25
2023-12-10T09:35:19.426Z,3.27
2023-12-10T09:36:22.311Z,3.28
2023-12-10T09:37:25.088Z,3.29
2023-12-10T09:38:27.977Z,3.29
2023-12-10T09:39:30.906Z,3.31
2023-12-10T09:40:34.792Z,3.33
2023-12-10T09:41:37.531Z,3.33
2023-12-10T09:42:40.335Z,3.35
2023-12-10T09:43:43.050Z,3.36
2023-12-10T09:44:48.572Z,3.36
2023-12-10T09:45:51.492Z,3.36
2023-12-10T09:46:54.903Z,3.38
2023-12-10T09:47:58.876Z,3.39
2023-12-10T09:49:02.275Z,3.40
2023-12-10T09:50:05.570Z,3.41
2023-12-10T09:51:08.702Z,3.43
2023-12-10T09:52:12.113Z,3.44
2023-12-10T09:53:14.966Z,3.44
2023-12-10T09:54:21.838Z,3.45
2023-12-10T09:55:24.564Z,3.46
2023-12-10T09:56:27.342Z,3.46
2023-12-10T09:57:31.799Z,3.47
2023-12-10T09:58:34.715Z,3.48
2023-12-10T09:59:37.459Z,3.50
2023-12-10T10:00:43.335Z,3.52
2023-12-10T10:01:51.330Z,3.53
2023-12-10T10:03:02.717Z,3.55
2023-12-10T10:04:05.795Z,3.56
2023-12-10T10:05:09.055Z,3.56
2023-12-10T10:06:11.905Z,3.57
2023-12-10T10:07:15.285Z,3.58
2023-12-10T10:08:18.062Z,3.58
2023-12-10T10:09:28.546Z,3.60
2023-12-10T10:10:38.192Z,3.60
2023-12-10T10:11:41.482Z,3.61
2023-12-10T10:12:47.098Z,3.62
2023-12-10T10:13:53.183Z,3.63
2023-12-10T10:14:57.347Z,3.64
2023-12-10T10:16:10.776Z,3.67
2023-12-10T10:17:13.508Z,3.68
2023-12-10T10:18:16.597Z,3.66
2023-12-10T10:19:19.601Z,3.69
2023-12-10T10:20:24.082Z,3.71
2023-12-10T10:21:27.167Z,3.72
2023-12-10T10:22:30.495Z,3.75
2023-12-10T10:23:33.269Z,3.79
2023-12-10T10:24:36.937Z,3.81
2023-12-10T10:25:41.279Z,3.82
2023-12-10T10:26:44.947Z,3.85
2023-12-10T10:27:50.984Z,3.88
2023-12-10T10:28:54.283Z,3.91
2023-12-10T10:29:58.615Z,3.93
2023-12-10T10:31:03.038Z,3.95
2023-12-10T10:32:06.439Z,3.96
2023-12-10T10:33:09.533Z,3.97
2023-12-10T10:34:14.195Z,3.98
2023-12-10T10:35:17.188Z,3.99
2023-12-10T10:36:23.204Z,4.00
2023-12-10T10:37:26.104Z,4.01
2023-12-10T10:38:30.484Z,4.02
2023-12-10T10:39:34.745Z,4.03
2023-12-10T10:40:37.536Z,4.04
2023-12-10T10:41:41.478Z,4.05
2023-12-10T10:42:51.484Z,4.06
2023-12-10T10:43:57.549Z,4.07
2023-12-10T10:45:03.442Z,4.08
2023-12-10T10:46:08.212Z,4.07
2023-12-10T10:47:11.154Z,4.07
2023-12-10T10:48:14.230Z,4.09
2023-12-10T10:49:17.287Z,4.11
2023-12-10T10:50:24.503Z,4.12
2023-12-10T10:51:30.686Z,4.13
2023-12-10T10:52:34.880Z,4.14
2023-12-10T10:53:38.753Z,4.16
2023-12-10T10:54:42.347Z,4.16
2023-12-10T10:55:49.397Z,4.17
2023-12-10T10:56:52.364Z,4.17
2023-12-10T10:57:55.760Z,4.18
2023-12-10T10:58:59.724Z,4.19
2023-12-10T11:00:21.792Z,4.20
2023-12-10T11:01:50.743Z,4.20
2023-12-10T11:02:57.073Z,4.19
2023-12-10T11:03:59.991Z,4.18
2023-12-10T11:05:02.791Z,4.17
2023-12-10T11:06:10.992Z,4.17
2023-12-10T11:07:17.297Z,4.17
2023-12-10T11:08:20.124Z,4.16
2023-12-10T11:09:23.037Z,4.15
2023-12-10T11:10:25.970Z,4.14
2023-12-10T11:11:31.414Z,4.14
2023-12-10T11:12:40.789Z,4.14
2023-12-10T11:13:47.893Z,4.14
2023-12-10T11:14:53.701Z,4.14
2023-12-10T11:15:59.505Z,4.14
2023-12-10T11:17:07.857Z,4.13
2023-12-10T11:18:13.025Z,4.13
2023-12-10T11:19:19.184Z,4.13
2023-12-10T11:20:51.249Z,4.13
2023-12-10T11:21:54.091Z,4.12
2023-12-10T11:22:56.915Z,4.13
2023-12-10T11:23:59.699Z,4.12
2023-12-10T11:25:02.503Z,4.12
2023-12-10T11:26:07.086Z,4.12
2023-12-10T11:27:12.433Z,4.12
2023-12-10T11:28:18.633Z,4.12
2023-12-10T11:29:21.662Z,4.12
2023-12-10T11:30:25.223Z,4.12
2023-12-10T11:31:27.987Z,4.12
2023-12-10T11:32:31.002Z,4.12
2023-12-10T11:33:35.681Z,4.12
2023-12-10T11:34:38.632Z,4.11
2023-12-10T11:35:42.369Z,4.11
2023-12-10T11:36:51.301Z,4.10
2023-12-10T11:37:54.185Z,4.11
2023-12-10T11:39:01.294Z,4.12
2023-12-10T11:40:05.270Z,4.12
2023-12-10T11:41:08.542Z,4.12
2023-12-10T11:42:11.234Z,4.12
2023-12-10T11:43:14.007Z,4.13
2023-12-10T11:44:19.466Z,4.14
2023-12-10T11:45:22.322Z,4.14
2023-12-10T11:46:34.448Z,4.15
2023-12-10T11:47:46.244Z,4.16
2023-12-10T11:48:50.688Z,4.16
2023-12-10T11:49:56.014Z,4.16
2023-12-10T11:50:58.796Z,4.16
2023-12-10T11:52:02.346Z,4.16
2023-12-10T11:53:07.315Z,4.17
2023-12-10T11:54:10.882Z,4.18
2023-12-10T11:55:14.027Z,4.19
2023-12-10T11:56:16.850Z,4.19
2023-12-10T11:57:19.652Z,4.20
2023-12-10T11:58:29.723Z,4.21
2023-12-10T11:59:32.556Z,4.22
2023-12-10T12:00:36.012Z,4.23
2023-12-10T12:01:38.848Z,4.23
2023-12-10T12:02:43.557Z,4.24
2023-12-10T12:03:46.770Z,4.25
2023-12-10T12:04:52.725Z,4.25
2023-12-10T12:05:55.852Z,4.25
2023-12-10T12:07:00.020Z,4.25
2023-12-10T12:08:03.249Z,4.26
2023-12-10T12:09:06.013Z,4.26
2023-12-10T12:10:10.454Z,4.26
2023-12-10T12:11:16.798Z,4.26
2023-12-10T12:12:23.822Z,4.26
2023-12-10T12:13:30.180Z,4.26
2023-12-10T12:14:33.252Z,4.26
2023-12-10T12:15:36.245Z,4.25
2023-12-10T12:16:40.338Z,4.25
2023-12-10T12:17:44.510Z,4.25
2023-12-10T12:18:47.436Z,4.24
2023-12-10T12:19:50.305Z,4.24
2023-12-10T12:20:53.243Z,4.24
2023-12-10T12:22:00.864Z,4.24
2023-12-10T12:23:03.938Z,4.26
2023-12-10T12:24:07.113Z,4.27
2023-12-10T12:25:10.432Z,4.27
2023-12-10T12:26:13.318Z,4.28
2023-12-10T12:27:16.063Z,4.28
2023-12-10T12:28:19.272Z,4.29
2023-12-10T12:29:22.022Z,4.29
2023-12-10T12:30:27.331Z,4.30
2023-12-10T12:31:30.077Z,4.31
2023-12-10T12:32:35.223Z,4.31
2023-12-10T12:33:38.662Z,4.32
2023-12-10T12:34:41.641Z,4.33
2023-12-10T12:35:44.632Z,4.33
2023-12-10T12:36:47.432Z,4.33
2023-12-10T12:37:50.240Z,4.34
2023-12-10T12:38:53.052Z,4.34
2023-12-10T12:39:58.084Z,4.33
2023-12-10T12:41:02.122Z,4.33
2023-12-10T12:42:07.569Z,4.34
2023-12-10T12:43:10.839Z,4.34
2023-12-10T12:44:14.439Z,4.33
2023-12-10T12:45:18.059Z,4.33
2023-12-10T12:46:20.793Z,4.33
2023-12-10T12:47:23.704Z,4.33
2023-12-10T12:48:26.624Z,4.33
2023-12-10T12:49:29.506Z,4.32
2023-12-10T12:50:33.596Z,4.32
2023-12-10T12:51:37.436Z,4.31
2023-12-10T12:52:40.564Z,4.31
2023-12-10T12:54:10.826Z,4.30
2023-12-10T12:55:07.466Z,4.29
2023-12-10T12:56:15.145Z,4.28
2023-12-10T12:57:18.306Z,4.28
2023-12-10T12:58:21.179Z,4.28
2023-12-10T12:59:23.865Z,4.27
2023-12-10T13:00:26.658Z,4.26
2023-12-10T13:01:30.660Z,4.26
2023-12-10T13:02:33.932Z,4.25
2023-12-10T13:03:36.798Z,4.25
2023-12-10T13:04:40.024Z,4.23
2023-12-10T13:05:43.009Z,4.23
2023-12-10T13:06:45.839Z,4.23
2023-12-10T13:07:48.619Z,4.22
2023-12-10T13:08:51.523Z,4.22
2023-12-10T13:09:54.305Z,4.22
2023-12-10T13:10:57.467Z,4.22
2023-12-10T13:12:01.026Z,4.22
2023-12-10T13:13:04.055Z,4.22
2023-12-10T13:14:06.883Z,4.22
2023-12-10T13:15:10.834Z,4.22
2023-12-10T13:16:13.730Z,4.21
2023-12-10T13:17:16.512Z,4.21
2023-12-10T13:18:19.758Z,4.21
2023-12-10T13:19:22.645Z,4.21
2023-12-10T13:20:25.386Z,4.21
2023-12-10T13:21:28.257Z,4.20
2023-12-10T13:22:31.042Z,4.20
2023-12-10T13:23:33.846Z,4.20
2023-12-10T13:24:38.184Z,4.20
2023-12-10T13:25:41.067Z,4.20
2023-12-10T13:26:44.114Z,4.20
2023-12-10T13:27:47.220Z,4.19
2023-12-10T13:28:50.733Z,4.19
2023-12-10T13:29:54.496Z,4.18
2023-12-10T13:30:57.797Z,4.19
2023-12-10T13:32:00.568Z,4.19
2023-12-10T13:33:04.152Z,4.20
2023-12-10T13:34:07.596Z,4.20
2023-12-10T13:35:10.552Z,4.20
2023-12-10T13:36:13.410Z,4.21
2023-12-10T13:37:16.147Z,4.21
2023-12-10T13:38:18.951Z,4.20
2023-12-10T13:39:21.941Z,4.20
2023-12-10T13:40:24.771Z,4.20
2023-12-10T13:41:27.615Z,4.20
2023-12-10T13:42:30.349Z,4.20
2023-12-10T13:43:33.087Z,4.20
2023-12-10T13:44:36.074Z,4.20
2023-12-10T13:45:39.028Z,4.21
2023-12-10T13:46:41.784Z,4.21
2023-12-10T13:47:44.591Z,4.22
2023-12-10T13:48:47.675Z,4.22
2023-12-10T13:49:50.644Z,4.22
2023-12-10T13:50:53.672Z,4.22
2023-12-10T13:51:56.542Z,4.22
2023-12-10T13:52:59.601Z,4.23
2023-12-10T13:54:02.422Z,4.23
2023-12-10T13:55:05.660Z,4.24
2023-12-10T13:56:08.664Z,4.24
2023-12-10T13:57:11.391Z,4.25
2023-12-10T13:58:18.247Z,4.25
2023-12-10T13:59:21.360Z,4.25
2023-12-10T14:00:24.293Z,4.26
2023-12-10T14:01:27.325Z,4.26
2023-12-10T14:02:32.945Z,4.26
2023-12-10T14:03:35.876Z,4.26
2023-12-10T14:04:41.686Z,4.26
2023-12-10T14:05:44.558Z,4.26
2023-12-10T14:06:50.261Z,4.27
2023-12-10T14:07:53.121Z,4.28